McCall, ID

11:57 AM MST on February 01, 2015 (GMT -0700)
MAP MCCALL AIR (P023) ID PSD | Change Station
CLOSE
Current Station
Personal Weather Station
Location: McCall, ID
Elevation: 4993 ft
Nearby Weather Stations

Elev 4993 ft 44.90 °N, 116.10 °W | Updated 57 minutes ago

Overcast
Overcast
26 °F
Feels Like 15 °F
N
13
Wind Variable Wind from SW
Gusts 0.0 mph

Today
High -- | Low -- °F
--% Chance of Precip.
Yesterday
High -- | Low -- °F
Precip. -- in
8:04 AM 5:52 PM
Waxing Gibbous, 96% visible
Pressure 30.21 in
Visibility 10.0 miles
Clouds Scattered Clouds 5500 ft
Overcast 8000 ft
Windchill 15 °F
Dew Point 19 °F
Humidity 74%
Rainfall -999.00 in
Snow Depth Not available.
UV 1 out of 12
Pollen .30 out of 12
Air Quality Not available.
Flu Activity Not available.
METAR KMYL 011851Z AUTO 17003KT 10SM SCT055 OVC080 M02/M07 A3012 RMK AO2 SLP230 T10221072

More Conditions Fewer Conditions

Pressure 30.21 in
Visibility 10.0 miles
Clouds Scattered Clouds 5500 ft
Overcast 8000 ft
Windchill 15 °F
Dew Point 19 °F
Humidity 74%
Rainfall -999.00 in
Snow Depth Not available.
UV 1 out of 12
Pollen .30 out of 12
Air Quality Not available.
Flu Activity Not available.
METAR KMYL 011851Z AUTO 17003KT 10SM SCT055 OVC080 M02/M07 A3012 RMK AO2 SLP230 T10221072

More Conditions Fewer Conditions

10-Day Weather Forecast

Almanac

Astronomy

Feb. 01, 2015 Rise Set
Actual Time
Civil Twilight
Nautical Twilight
Astronomical Twilight
Moon
Length of Visible Light
Length of Day
Tomorrow will be .
, % of the Moon is Illuminated

Today's Extremes

State Highs State Lows

Community

WunderPhotos

Upload Photos

1,792,434 photos uploaded!

WunderBlogs® & News

Nearby

Air Quality

  Air Quality AQ Index Pollutant
Not available.

Snow Depth

Station Depth Elevation

Earthquake Activity

City Distance Mag. Time & Date
Minimum magnitude displayed is 2.5.

Coastal Water Temperatures

Place Temperature

Nearby Weather Stations